sensor_id;sensor_type;location;lat;lon;timestamp;temperature;humidity
8838;DHT22;4455;50.880;4.698;2022-07-25T00:01:10;23.90;99.90
8838;DHT22;4455;50.880;4.698;2022-07-25T00:03:35;24.00;99.90
8838;DHT22;4455;50.880;4.698;2022-07-25T00:06:01;24.00;99.90
8838;DHT22;4455;50.880;4.698;2022-07-25T00:08:27;23.90;99.90
8838;DHT22;4455;50.880;4.698;2022-07-25T00:10:53;23.90;99.90
8838;DHT22;4455;50.880;4.698;2022-07-25T00:13:19;23.90;99.90
8838;DHT22;4455;50.880;4.698;2022-07-25T00:15:44;23.80;99.90
8838;DHT22;4455;50.880;4.698;2022-07-25T00:18:10;23.90;99.90
8838;DHT22;4455;50.880;4.698;2022-07-25T00:20:36;23.90;99.90
8838;DHT22;4455;50.880;4.698;2022-07-25T00:23:02;23.90;99.90
8838;DHT22;4455;50.880;4.698;2022-07-25T00:25:27;23.80;99.90
8838;DHT22;4455;50.880;4.698;2022-07-25T00:27:53;23.70;99.90
8838;DHT22;4455;50.880;4.698;2022-07-25T00:30:19;23.70;99.90
8838;DHT22;4455;50.880;4.698;2022-07-25T00:32:45;23.80;99.90
8838;DHT22;4455;50.880;4.698;2022-07-25T00:35:11;23.70;99.90
8838;DHT22;4455;50.880;4.698;2022-07-25T00:37:36;23.70;99.90
8838;DHT22;4455;50.880;4.698;2022-07-25T00:40:03;23.60;99.90
8838;DHT22;4455;50.880;4.698;2022-07-25T00:42:29;23.50;99.90
8838;DHT22;4455;50.880;4.698;2022-07-25T00:44:55;23.40;99.90
8838;DHT22;4455;50.880;4.698;2022-07-25T00:47:20;23.30;99.90
8838;DHT22;4455;50.880;4.698;2022-07-25T00:49:46;23.30;99.90
8838;DHT22;4455;50.880;4.698;2022-07-25T00:52:13;23.30;99.90
8838;DHT22;4455;50.880;4.698;2022-07-25T00:54:39;23.20;99.90
8838;DHT22;4455;50.880;4.698;2022-07-25T00:57:04;23.10;99.90
8838;DHT22;4455;50.880;4.698;2022-07-25T00:59:31;23.10;99.90
8838;DHT22;4455;50.880;4.698;2022-07-25T01:01:57;23.10;99.90
8838;DHT22;4455;50.880;4.698;2022-07-25T01:04:23;23.10;99.90
8838;DHT22;4455;50.880;4.698;2022-07-25T01:06:50;23.10;99.90
8838;DHT22;4455;50.880;4.698;2022-07-25T01:09:15;23.10;99.90
8838;DHT22;4455;50.880;4.698;2022-07-25T01:11:42;23.00;99.90
8838;DHT22;4455;50.880;4.698;2022-07-25T01:14:08;23.00;99.90
8838;DHT22;4455;50.880;4.698;2022-07-25T01:16:34;22.90;99.90
8838;DHT22;4455;50.880;4.698;2022-07-25T01:19:00;22.90;99.90
8838;DHT22;4455;50.880;4.698;2022-07-25T01:21:26;22.90;99.90
8838;DHT22;4455;50.880;4.698;2022-07-25T01:23:52;22.90;99.90
8838;DHT22;4455;50.880;4.698;2022-07-25T01:26:18;22.90;99.90
8838;DHT22;4455;50.880;4.698;2022-07-25T01:28:44;22.90;99.90
8838;DHT22;4455;50.880;4.698;2022-07-25T01:31:10;22.90;99.90
8838;DHT22;4455;50.880;4.698;2022-07-25T01:33:36;22.90;99.90
8838;DHT22;4455;50.880;4.698;2022-07-25T01:36:01;22.90;99.90
8838;DHT22;4455;50.880;4.698;2022-07-25T01:38:28;22.80;99.90
8838;DHT22;4455;50.880;4.698;2022-07-25T01:40:54;22.80;99.90
8838;DHT22;4455;50.880;4.698;2022-07-25T01:43:20;22.70;99.90
8838;DHT22;4455;50.880;4.698;2022-07-25T01:45:46;22.60;99.90
8838;DHT22;4455;50.880;4.698;2022-07-25T01:48:12;22.70;99.90
8838;DHT22;4455;50.880;4.698;2022-07-25T01:50:37;22.60;99.90
8838;DHT22;4455;50.880;4.698;2022-07-25T01:53:04;22.50;99.90
8838;DHT22;4455;50.880;4.698;2022-07-25T01:55:30;22.50;99.90
8838;DHT22;4455;50.880;4.698;2022-07-25T01:57:56;22.50;99.90
8838;DHT22;4455;50.880;4.698;2022-07-25T02:00:22;22.50;99.90
8838;DHT22;4455;50.880;4.698;2022-07-25T02:02:48;22.50;99.90
8838;DHT22;4455;50.880;4.698;2022-07-25T02:05:33;22.50;99.90
8838;DHT22;4455;50.880;4.698;2022-07-25T02:08:00;22.50;99.90
8838;DHT22;4455;50.880;4.698;2022-07-25T02:10:26;22.50;99.90
8838;DHT22;4455;50.880;4.698;2022-07-25T02:12:53;22.50;99.90
8838;DHT22;4455;50.880;4.698;2022-07-25T02:15:19;22.50;99.90
8838;DHT22;4455;50.880;4.698;2022-07-25T02:17:44;22.50;99.90
8838;DHT22;4455;50.880;4.698;2022-07-25T02:20:10;22.50;99.90
8838;DHT22;4455;50.880;4.698;2022-07-25T02:22:36;22.50;99.90
8838;DHT22;4455;50.880;4.698;2022-07-25T02:25:02;22.40;99.90
8838;DHT22;4455;50.880;4.698;2022-07-25T02:27:28;22.40;99.90
8838;DHT22;4455;50.880;4.698;2022-07-25T02:29:54;22.40;99.90
8838;DHT22;4455;50.880;4.698;2022-07-25T02:32:20;22.40;99.90
8838;DHT22;4455;50.880;4.698;2022-07-25T02:34:46;22.40;99.90
8838;DHT22;4455;50.880;4.698;2022-07-25T02:37:12;22.20;99.90
8838;DHT22;4455;50.880;4.698;2022-07-25T02:39:38;22.20;99.90
8838;DHT22;4455;50.880;4.698;2022-07-25T02:42:04;22.10;99.90
8838;DHT22;4455;50.880;4.698;2022-07-25T02:44:31;22.20;99.90
8838;DHT22;4455;50.880;4.698;2022-07-25T02:46:56;22.20;99.90
8838;DHT22;4455;50.880;4.698;2022-07-25T02:49:22;22.20;99.90
8838;DHT22;4455;50.880;4.698;2022-07-25T02:51:48;22.20;99.90
8838;DHT22;4455;50.880;4.698;2022-07-25T02:54:14;22.20;99.90
8838;DHT22;4455;50.880;4.698;2022-07-25T02:56:40;22.20;99.90
8838;DHT22;4455;50.880;4.698;2022-07-25T02:59:05;22.20;99.90
8838;DHT22;4455;50.880;4.698;2022-07-25T03:01:31;22.20;99.90
8838;DHT22;4455;50.880;4.698;2022-07-25T03:03:57;22.30;99.90
8838;DHT22;4455;50.880;4.698;2022-07-25T03:06:24;22.40;99.90
8838;DHT22;4455;50.880;4.698;2022-07-25T03:08:50;22.50;99.90
8838;DHT22;4455;50.880;4.698;2022-07-25T03:11:15;22.50;99.90
8838;DHT22;4455;50.880;4.698;2022-07-25T03:13:41;22.60;99.90
8838;DHT22;4455;50.880;4.698;2022-07-25T03:16:07;22.60;99.90
8838;DHT22;4455;50.880;4.698;2022-07-25T03:18:34;22.70;99.90
8838;DHT22;4455;50.880;4.698;2022-07-25T03:21:00;22.60;99.90
8838;DHT22;4455;50.880;4.698;2022-07-25T03:23:26;22.60;99.90
8838;DHT22;4455;50.880;4.698;2022-07-25T03:25:55;22.60;99.90
8838;DHT22;4455;50.880;4.698;2022-07-25T03:28:22;22.60;99.90
8838;DHT22;4455;50.880;4.698;2022-07-25T03:30:49;22.60;99.90
8838;DHT22;4455;50.880;4.698;2022-07-25T03:33:15;22.60;99.90
8838;DHT22;4455;50.880;4.698;2022-07-25T03:35:41;22.50;99.90
8838;DHT22;4455;50.880;4.698;2022-07-25T03:38:06;22.60;99.90
8838;DHT22;4455;50.880;4.698;2022-07-25T03:40:32;22.60;99.90
8838;DHT22;4455;50.880;4.698;2022-07-25T03:42:58;22.60;99.90
8838;DHT22;4455;50.880;4.698;2022-07-25T03:45:24;22.60;99.90
8838;DHT22;4455;50.880;4.698;2022-07-25T03:47:50;22.60;99.90
8838;DHT22;4455;50.880;4.698;2022-07-25T03:50:16;22.60;99.90
8838;DHT22;4455;50.880;4.698;2022-07-25T03:52:42;22.50;99.90
8838;DHT22;4455;50.880;4.698;2022-07-25T03:55:09;22.60;99.90
8838;DHT22;4455;50.880;4.698;2022-07-25T03:57:35;22.50;99.90
8838;DHT22;4455;50.880;4.698;2022-07-25T04:00:13;22.50;99.90
8838;DHT22;4455;50.880;4.698;2022-07-25T04:02:55;22.40;99.90
8838;DHT22;4455;50.880;4.698;2022-07-25T04:05:21;22.40;99.90
8838;DHT22;4455;50.880;4.698;2022-07-25T04:07:46;22.30;99.90
8838;DHT22;4455;50.880;4.698;2022-07-25T04:10:12;22.40;99.90
8838;DHT22;4455;50.880;4.698;2022-07-25T04:12:38;22.40;99.90
8838;DHT22;4455;50.880;4.698;2022-07-25T04:15:04;22.40;99.90
8838;DHT22;4455;50.880;4.698;2022-07-25T04:17:30;22.40;99.90
8838;DHT22;4455;50.880;4.698;2022-07-25T04:19:56;22.30;99.90
8838;DHT22;4455;50.880;4.698;2022-07-25T04:22:22;22.30;99.90
8838;DHT22;4455;50.880;4.698;2022-07-25T04:24:48;22.30;99.90
8838;DHT22;4455;50.880;4.698;2022-07-25T04:27:14;22.30;99.90
8838;DHT22;4455;50.880;4.698;2022-07-25T04:29:39;22.30;99.90
8838;DHT22;4455;50.880;4.698;2022-07-25T04:32:05;22.30;99.90
8838;DHT22;4455;50.880;4.698;2022-07-25T04:34:31;22.20;99.90
8838;DHT22;4455;50.880;4.698;2022-07-25T04:36:57;22.20;99.90
8838;DHT22;4455;50.880;4.698;2022-07-25T04:39:23;22.20;99.90
8838;DHT22;4455;50.880;4.698;2022-07-25T04:41:49;22.20;99.90
8838;DHT22;4455;50.880;4.698;2022-07-25T04:44:15;22.20;99.90
8838;DHT22;4455;50.880;4.698;2022-07-25T04:46:41;22.20;99.90
8838;DHT22;4455;50.880;4.698;2022-07-25T04:49:07;22.20;99.90
8838;DHT22;4455;50.880;4.698;2022-07-25T04:51:33;22.20;99.90
8838;DHT22;4455;50.880;4.698;2022-07-25T04:53:59;22.20;99.90
8838;DHT22;4455;50.880;4.698;2022-07-25T04:56:25;22.20;99.90
8838;DHT22;4455;50.880;4.698;2022-07-25T04:58:50;22.20;99.90
8838;DHT22;4455;50.880;4.698;2022-07-25T05:01:16;22.30;99.90
8838;DHT22;4455;50.880;4.698;2022-07-25T05:03:42;22.30;99.90
8838;DHT22;4455;50.880;4.698;2022-07-25T05:06:08;22.30;99.90
8838;DHT22;4455;50.880;4.698;2022-07-25T05:08:34;22.30;99.90
8838;DHT22;4455;50.880;4.698;2022-07-25T05:11:01;22.40;99.90
8838;DHT22;4455;50.880;4.698;2022-07-25T05:13:27;22.40;99.90
8838;DHT22;4455;50.880;4.698;2022-07-25T05:15:55;22.40;99.90
8838;DHT22;4455;50.880;4.698;2022-07-25T05:18:22;22.40;99.90
8838;DHT22;4455;50.880;4.698;2022-07-25T05:20:47;22.40;99.90
8838;DHT22;4455;50.880;4.698;2022-07-25T05:23:13;22.50;99.90
8838;DHT22;4455;50.880;4.698;2022-07-25T05:25:39;22.60;99.90
8838;DHT22;4455;50.880;4.698;2022-07-25T05:28:05;22.50;99.90
8838;DHT22;4455;50.880;4.698;2022-07-25T05:30:31;22.50;99.90
8838;DHT22;4455;50.880;4.698;2022-07-25T05:32:59;22.50;99.90
8838;DHT22;4455;50.880;4.698;2022-07-25T05:35:25;22.50;99.90
8838;DHT22;4455;50.880;4.698;2022-07-25T05:37:51;22.60;99.90
8838;DHT22;4455;50.880;4.698;2022-07-25T05:40:17;22.60;99.90
8838;DHT22;4455;50.880;4.698;2022-07-25T05:42:44;22.70;99.90
8838;DHT22;4455;50.880;4.698;2022-07-25T05:45:13;22.70;99.90
8838;DHT22;4455;50.880;4.698;2022-07-25T05:47:41;22.70;99.90
8838;DHT22;4455;50.880;4.698;2022-07-25T05:50:07;22.60;99.90
8838;DHT22;4455;50.880;4.698;2022-07-25T05:52:33;22.70;99.90
8838;DHT22;4455;50.880;4.698;2022-07-25T05:55:00;22.60;99.90
8838;DHT22;4455;50.880;4.698;2022-07-25T05:57:26;22.70;99.90
8838;DHT22;4455;50.880;4.698;2022-07-25T05:59:52;22.80;99.90
8838;DHT22;4455;50.880;4.698;2022-07-25T06:02:19;22.90;99.90
8838;DHT22;4455;50.880;4.698;2022-07-25T06:04:44;23.00;99.90
8838;DHT22;4455;50.880;4.698;2022-07-25T06:07:10;22.90;99.90
8838;DHT22;4455;50.880;4.698;2022-07-25T06:09:38;23.00;99.90
8838;DHT22;4455;50.880;4.698;2022-07-25T06:12:04;23.10;99.90
8838;DHT22;4455;50.880;4.698;2022-07-25T06:14:30;23.20;99.90
8838;DHT22;4455;50.880;4.698;2022-07-25T06:17:02;23.10;99.90
8838;DHT22;4455;50.880;4.698;2022-07-25T06:19:28;23.00;99.90
8838;DHT22;4455;50.880;4.698;2022-07-25T06:21:57;22.80;99.90
8838;DHT22;4455;50.880;4.698;2022-07-25T06:24:26;22.70;99.90
8838;DHT22;4455;50.880;4.698;2022-07-25T06:26:55;22.60;99.90
8838;DHT22;4455;50.880;4.698;2022-07-25T06:29:21;22.60;99.90
8838;DHT22;4455;50.880;4.698;2022-07-25T06:31:48;22.70;99.90
8838;DHT22;4455;50.880;4.698;2022-07-25T06:34:14;22.60;99.90
8838;DHT22;4455;50.880;4.698;2022-07-25T06:36:41;22.60;99.90
8838;DHT22;4455;50.880;4.698;2022-07-25T06:39:07;22.60;99.90
8838;DHT22;4455;50.880;4.698;2022-07-25T06:41:33;22.60;99.90
8838;DHT22;4455;50.880;4.698;2022-07-25T06:44:11;22.70;99.90
8838;DHT22;4455;50.880;4.698;2022-07-25T06:46:36;22.70;99.90
8838;DHT22;4455;50.880;4.698;2022-07-25T06:49:02;22.70;99.90
8838;DHT22;4455;50.880;4.698;2022-07-25T06:51:28;22.60;99.90
8838;DHT22;4455;50.880;4.698;2022-07-25T06:53:54;22.60;99.90
8838;DHT22;4455;50.880;4.698;2022-07-25T06:56:21;22.60;99.90
8838;DHT22;4455;50.880;4.698;2022-07-25T06:58:47;22.70;99.90
8838;DHT22;4455;50.880;4.698;2022-07-25T07:01:13;23.00;99.90
8838;DHT22;4455;50.880;4.698;2022-07-25T07:03:39;23.60;99.90
8838;DHT22;4455;50.880;4.698;2022-07-25T07:06:08;24.40;99.90
8838;DHT22;4455;50.880;4.698;2022-07-25T07:08:35;25.00;99.90
8838;DHT22;4455;50.880;4.698;2022-07-25T07:11:01;25.50;99.90
8838;DHT22;4455;50.880;4.698;2022-07-25T07:13:28;25.60;99.90
8838;DHT22;4455;50.880;4.698;2022-07-25T07:15:54;25.70;99.90
8838;DHT22;4455;50.880;4.698;2022-07-25T07:18:21;25.80;99.90
8838;DHT22;4455;50.880;4.698;2022-07-25T07:20:47;25.80;99.90
8838;DHT22;4455;50.880;4.698;2022-07-25T07:23:13;25.90;99.90
8838;DHT22;4455;50.880;4.698;2022-07-25T07:25:39;26.20;99.90
8838;DHT22;4455;50.880;4.698;2022-07-25T07:28:05;26.60;99.90
8838;DHT22;4455;50.880;4.698;2022-07-25T07:30:32;26.80;99.90
8838;DHT22;4455;50.880;4.698;2022-07-25T07:32:58;27.00;99.90
8838;DHT22;4455;50.880;4.698;2022-07-25T07:35:24;27.10;99.90
8838;DHT22;4455;50.880;4.698;2022-07-25T07:37:50;27.20;99.90
8838;DHT22;4455;50.880;4.698;2022-07-25T07:40:20;27.00;99.90
8838;DHT22;4455;50.880;4.698;2022-07-25T07:42:49;26.90;99.90
8838;DHT22;4455;50.880;4.698;2022-07-25T07:45:20;26.90;99.90
8838;DHT22;4455;50.880;4.698;2022-07-25T07:47:48;27.10;99.90
8838;DHT22;4455;50.880;4.698;2022-07-25T07:50:16;27.50;99.90
8838;DHT22;4455;50.880;4.698;2022-07-25T07:52:42;27.30;99.90
8838;DHT22;4455;50.880;4.698;2022-07-25T07:55:09;27.40;99.90
8838;DHT22;4455;50.880;4.698;2022-07-25T07:57:54;27.40;99.90
8838;DHT22;4455;50.880;4.698;2022-07-25T08:00:20;27.60;99.90
8838;DHT22;4455;50.880;4.698;2022-07-25T08:02:50;27.40;99.90
8838;DHT22;4455;50.880;4.698;2022-07-25T08:05:40;27.70;99.90
8838;DHT22;4455;50.880;4.698;2022-07-25T08:08:09;27.90;99.60
8838;DHT22;4455;50.880;4.698;2022-07-25T08:10:42;28.10;99.10
8838;DHT22;4455;50.880;4.698;2022-07-25T08:13:20;28.10;98.60
8838;DHT22;4455;50.880;4.698;2022-07-25T08:15:51;28.20;98.60
8838;DHT22;4455;50.880;4.698;2022-07-25T08:18:17;28.10;98.30
8838;DHT22;4455;50.880;4.698;2022-07-25T08:20:44;27.80;98.90
8838;DHT22;4455;50.880;4.698;2022-07-25T08:23:10;27.70;99.30
8838;DHT22;4455;50.880;4.698;2022-07-25T08:25:37;27.40;99.90
8838;DHT22;4455;50.880;4.698;2022-07-25T08:28:03;27.20;99.90
8838;DHT22;4455;50.880;4.698;2022-07-25T08:30:31;26.90;99.90
8838;DHT22;4455;50.880;4.698;2022-07-25T08:32:58;26.50;99.90
8838;DHT22;4455;50.880;4.698;2022-07-25T08:35:26;26.20;99.90
8838;DHT22;4455;50.880;4.698;2022-07-25T08:37:53;26.10;99.90
8838;DHT22;4455;50.880;4.698;2022-07-25T08:40:20;26.00;99.90
8838;DHT22;4455;50.880;4.698;2022-07-25T08:42:47;25.80;99.90
8838;DHT22;4455;50.880;4.698;2022-07-25T08:45:14;25.70;99.90
8838;DHT22;4455;50.880;4.698;2022-07-25T08:47:42;25.80;99.90
8838;DHT22;4455;50.880;4.698;2022-07-25T08:50:13;25.80;99.90
8838;DHT22;4455;50.880;4.698;2022-07-25T08:52:42;26.00;99.90
8838;DHT22;4455;50.880;4.698;2022-07-25T08:55:10;26.20;99.90
8838;DHT22;4455;50.880;4.698;2022-07-25T08:57:38;26.10;99.90
8838;DHT22;4455;50.880;4.698;2022-07-25T09:00:10;26.10;99.90
8838;DHT22;4455;50.880;4.698;2022-07-25T09:02:37;26.10;99.90
8838;DHT22;4455;50.880;4.698;2022-07-25T09:05:04;26.10;99.90
8838;DHT22;4455;50.880;4.698;2022-07-25T09:07:37;26.10;99.90
8838;DHT22;4455;50.880;4.698;2022-07-25T09:10:13;26.20;99.90
8838;DHT22;4455;50.880;4.698;2022-07-25T09:12:40;26.10;99.90
8838;DHT22;4455;50.880;4.698;2022-07-25T09:15:07;26.20;99.90
8838;DHT22;4455;50.880;4.698;2022-07-25T09:17:35;26.20;99.90
8838;DHT22;4455;50.880;4.698;2022-07-25T09:20:01;26.30;99.90
8838;DHT22;4455;50.880;4.698;2022-07-25T09:22:27;26.50;99.90
8838;DHT22;4455;50.880;4.698;2022-07-25T09:24:55;26.70;99.90
8838;DHT22;4455;50.880;4.698;2022-07-25T09:27:20;26.80;99.90
8838;DHT22;4455;50.880;4.698;2022-07-25T09:29:46;26.70;99.90
8838;DHT22;4455;50.880;4.698;2022-07-25T09:32:17;26.60;99.90
8838;DHT22;4455;50.880;4.698;2022-07-25T09:34:46;26.70;99.90
8838;DHT22;4455;50.880;4.698;2022-07-25T09:37:14;26.90;99.90
8838;DHT22;4455;50.880;4.698;2022-07-25T09:39:46;27.10;99.90
8838;DHT22;4455;50.880;4.698;2022-07-25T09:42:27;27.10;99.90
8838;DHT22;4455;50.880;4.698;2022-07-25T09:50:24;27.10;99.90
8838;DHT22;4455;50.880;4.698;2022-07-25T09:52:51;27.00;99.90
8838;DHT22;4455;50.880;4.698;2022-07-25T09:55:18;27.10;99.90
8838;DHT22;4455;50.880;4.698;2022-07-25T09:57:46;27.30;99.90
8838;DHT22;4455;50.880;4.698;2022-07-25T10:00:17;27.40;99.90
8838;DHT22;4455;50.880;4.698;2022-07-25T10:05:40;27.50;99.90
8838;DHT22;4455;50.880;4.698;2022-07-25T10:08:14;27.20;99.90
8838;DHT22;4455;50.880;4.698;2022-07-25T10:10:41;27.20;99.90
8838;DHT22;4455;50.880;4.698;2022-07-25T10:13:08;27.10;99.90
8838;DHT22;4455;50.880;4.698;2022-07-25T10:15:48;26.90;99.90
8838;DHT22;4455;50.880;4.698;2022-07-25T10:18:33;26.80;99.90
8838;DHT22;4455;50.880;4.698;2022-07-25T10:21:10;26.90;99.90
8838;DHT22;4455;50.880;4.698;2022-07-25T10:23:38;26.90;99.90
8838;DHT22;4455;50.880;4.698;2022-07-25T10:26:10;26.80;99.90
8838;DHT22;4455;50.880;4.698;2022-07-25T10:28:41;26.80;99.90
8838;DHT22;4455;50.880;4.698;2022-07-25T10:31:24;27.00;99.90
8838;DHT22;4455;50.880;4.698;2022-07-25T10:33:57;27.00;99.90
8838;DHT22;4455;50.880;4.698;2022-07-25T10:36:26;26.90;99.90
8838;DHT22;4455;50.880;4.698;2022-07-25T10:38:59;26.70;99.90
8838;DHT22;4455;50.880;4.698;2022-07-25T10:41:26;26.70;99.90
8838;DHT22;4455;50.880;4.698;2022-07-25T10:43:59;26.70;99.90
8838;DHT22;4455;50.880;4.698;2022-07-25T10:46:28;26.80;99.90
8838;DHT22;4455;50.880;4.698;2022-07-25T10:49:02;26.80;99.90
8838;DHT22;4455;50.880;4.698;2022-07-25T10:51:32;26.80;99.90
8838;DHT22;4455;50.880;4.698;2022-07-25T10:53:59;26.80;99.90
8838;DHT22;4455;50.880;4.698;2022-07-25T10:56:27;27.00;99.90
8838;DHT22;4455;50.880;4.698;2022-07-25T10:58:57;27.00;99.60
8838;DHT22;4455;50.880;4.698;2022-07-25T11:01:26;27.00;99.80
8838;DHT22;4455;50.880;4.698;2022-07-25T11:03:54;27.10;99.30
8838;DHT22;4455;50.880;4.698;2022-07-25T11:06:33;27.00;99.70
8838;DHT22;4455;50.880;4.698;2022-07-25T11:09:01;26.90;99.60
8838;DHT22;4455;50.880;4.698;2022-07-25T11:11:41;27.00;99.70
8838;DHT22;4455;50.880;4.698;2022-07-25T11:14:36;27.10;99.10
8838;DHT22;4455;50.880;4.698;2022-07-25T11:17:22;27.10;99.10
8838;DHT22;4455;50.880;4.698;2022-07-25T11:20:03;27.00;98.60
8838;DHT22;4455;50.880;4.698;2022-07-25T11:22:30;26.90;98.70
8838;DHT22;4455;50.880;4.698;2022-07-25T11:24:57;26.80;99.30
8838;DHT22;4455;50.880;4.698;2022-07-25T11:27:28;26.60;99.80
8838;DHT22;4455;50.880;4.698;2022-07-25T11:30:12;26.50;99.90
8838;DHT22;4455;50.880;4.698;2022-07-25T11:32:52;26.40;99.90
8838;DHT22;4455;50.880;4.698;2022-07-25T11:35:25;26.50;99.70
8838;DHT22;4455;50.880;4.698;2022-07-25T11:37:52;26.50;99.70
8838;DHT22;4455;50.880;4.698;2022-07-25T11:40:19;26.50;99.60
8838;DHT22;4455;50.880;4.698;2022-07-25T11:42:49;26.50;99.50
8838;DHT22;4455;50.880;4.698;2022-07-25T11:48:00;26.20;99.90
8838;DHT22;4455;50.880;4.698;2022-07-25T11:50:30;26.00;99.90
8838;DHT22;4455;50.880;4.698;2022-07-25T11:53:02;25.70;99.90
8838;DHT22;4455;50.880;4.698;2022-07-25T11:55:30;25.40;99.90
8838;DHT22;4455;50.880;4.698;2022-07-25T11:57:58;25.10;99.90
8838;DHT22;4455;50.880;4.698;2022-07-25T12:00:26;24.90;99.90
8838;DHT22;4455;50.880;4.698;2022-07-25T12:02:52;24.80;99.90
8838;DHT22;4455;50.880;4.698;2022-07-25T12:05:20;24.70;99.90
8838;DHT22;4455;50.880;4.698;2022-07-25T12:07:48;24.80;99.90
8838;DHT22;4455;50.880;4.698;2022-07-25T12:10:17;24.80;99.90
8838;DHT22;4455;50.880;4.698;2022-07-25T12:12:51;24.70;99.90
8838;DHT22;4455;50.880;4.698;2022-07-25T12:15:24;24.60;99.90
8838;DHT22;4455;50.880;4.698;2022-07-25T12:17:52;24.50;99.90
8838;DHT22;4455;50.880;4.698;2022-07-25T12:22:56;24.50;99.90
8838;DHT22;4455;50.880;4.698;2022-07-25T12:25:23;24.60;99.90
8838;DHT22;4455;50.880;4.698;2022-07-25T12:27:49;24.70;99.90
8838;DHT22;4455;50.880;4.698;2022-07-25T12:30:15;24.90;99.90
8838;DHT22;4455;50.880;4.698;2022-07-25T12:32:43;25.00;99.90
8838;DHT22;4455;50.880;4.698;2022-07-25T12:35:10;25.10;99.90
8838;DHT22;4455;50.880;4.698;2022-07-25T12:37:39;25.00;99.90
8838;DHT22;4455;50.880;4.698;2022-07-25T12:40:06;25.00;99.90
8838;DHT22;4455;50.880;4.698;2022-07-25T12:42:32;25.10;99.90
8838;DHT22;4455;50.880;4.698;2022-07-25T12:44:58;25.30;99.90
8838;DHT22;4455;50.880;4.698;2022-07-25T12:47:25;25.50;99.90
8838;DHT22;4455;50.880;4.698;2022-07-25T12:49:52;25.70;99.90
8838;DHT22;4455;50.880;4.698;2022-07-25T12:52:18;25.90;99.90
8838;DHT22;4455;50.880;4.698;2022-07-25T12:54:45;25.90;99.90
8838;DHT22;4455;50.880;4.698;2022-07-25T12:57:11;25.80;99.90
8838;DHT22;4455;50.880;4.698;2022-07-25T12:59:38;25.80;99.90
8838;DHT22;4455;50.880;4.698;2022-07-25T13:02:06;25.80;99.90
8838;DHT22;4455;50.880;4.698;2022-07-25T13:04:33;25.70;99.90
8838;DHT22;4455;50.880;4.698;2022-07-25T13:06:59;25.60;99.90
8838;DHT22;4455;50.880;4.698;2022-07-25T13:09:27;25.60;99.90
8838;DHT22;4455;50.880;4.698;2022-07-25T13:11:53;25.60;99.90
8838;DHT22;4455;50.880;4.698;2022-07-25T13:14:21;25.70;99.90
8838;DHT22;4455;50.880;4.698;2022-07-25T13:16:49;25.80;99.90
8838;DHT22;4455;50.880;4.698;2022-07-25T13:19:16;25.90;99.90
8838;DHT22;4455;50.880;4.698;2022-07-25T13:21:42;26.00;99.90
8838;DHT22;4455;50.880;4.698;2022-07-25T13:24:09;26.10;99.90
8838;DHT22;4455;50.880;4.698;2022-07-25T13:26:37;26.30;99.90
8838;DHT22;4455;50.880;4.698;2022-07-25T13:29:03;26.40;99.90
8838;DHT22;4455;50.880;4.698;2022-07-25T13:31:34;26.50;99.80
8838;DHT22;4455;50.880;4.698;2022-07-25T13:34:01;26.70;98.90
8838;DHT22;4455;50.880;4.698;2022-07-25T13:36:27;26.50;98.40
8838;DHT22;4455;50.880;4.698;2022-07-25T13:38:53;26.40;98.80
8838;DHT22;4455;50.880;4.698;2022-07-25T13:41:19;26.30;99.00
8838;DHT22;4455;50.880;4.698;2022-07-25T13:43:44;26.30;98.80
8838;DHT22;4455;50.880;4.698;2022-07-25T13:46:11;26.40;98.50
8838;DHT22;4455;50.880;4.698;2022-07-25T13:48:37;26.30;98.50
8838;DHT22;4455;50.880;4.698;2022-07-25T13:51:03;26.40;99.00
8838;DHT22;4455;50.880;4.698;2022-07-25T13:53:29;26.50;98.10
8838;DHT22;4455;50.880;4.698;2022-07-25T13:55:56;26.60;97.90
8838;DHT22;4455;50.880;4.698;2022-07-25T13:58:23;26.60;98.00
8838;DHT22;4455;50.880;4.698;2022-07-25T14:00:49;26.60;97.80
8838;DHT22;4455;50.880;4.698;2022-07-25T14:03:17;26.60;97.90
8838;DHT22;4455;50.880;4.698;2022-07-25T14:05:43;26.50;97.80
8838;DHT22;4455;50.880;4.698;2022-07-25T14:08:09;26.30;97.20
8838;DHT22;4455;50.880;4.698;2022-07-25T14:10:34;26.20;97.00
8838;DHT22;4455;50.880;4.698;2022-07-25T14:13:00;26.10;97.00
8838;DHT22;4455;50.880;4.698;2022-07-25T14:15:27;26.20;96.70
8838;DHT22;4455;50.880;4.698;2022-07-25T14:17:53;26.30;96.40
8838;DHT22;4455;50.880;4.698;2022-07-25T14:20:19;26.20;96.50
8838;DHT22;4455;50.880;4.698;2022-07-25T14:22:47;26.20;96.70
8838;DHT22;4455;50.880;4.698;2022-07-25T14:25:13;26.20;96.90
8838;DHT22;4455;50.880;4.698;2022-07-25T14:27:39;26.40;96.40
8838;DHT22;4455;50.880;4.698;2022-07-25T14:30:08;26.40;96.10
8838;DHT22;4455;50.880;4.698;2022-07-25T14:32:34;26.50;96.20
8838;DHT22;4455;50.880;4.698;2022-07-25T14:35:00;26.60;96.10
8838;DHT22;4455;50.880;4.698;2022-07-25T14:37:27;26.50;94.70
8838;DHT22;4455;50.880;4.698;2022-07-25T14:39:59;26.30;94.40
8838;DHT22;4455;50.880;4.698;2022-07-25T14:42:26;26.10;95.00
8838;DHT22;4455;50.880;4.698;2022-07-25T14:44:53;26.20;95.20
8838;DHT22;4455;50.880;4.698;2022-07-25T14:47:22;26.20;95.40
8838;DHT22;4455;50.880;4.698;2022-07-25T14:49:49;26.30;95.20
8838;DHT22;4455;50.880;4.698;2022-07-25T14:52:15;26.40;95.10
8838;DHT22;4455;50.880;4.698;2022-07-25T14:54:41;26.50;94.90
8838;DHT22;4455;50.880;4.698;2022-07-25T14:57:08;26.70;94.60
8838;DHT22;4455;50.880;4.698;2022-07-25T14:59:34;26.70;94.10
8838;DHT22;4455;50.880;4.698;2022-07-25T15:02:00;26.70;94.60
8838;DHT22;4455;50.880;4.698;2022-07-25T15:04:26;26.90;94.60
8838;DHT22;4455;50.880;4.698;2022-07-25T15:06:53;26.90;92.20
8838;DHT22;4455;50.880;4.698;2022-07-25T15:09:19;26.90;92.30
8838;DHT22;4455;50.880;4.698;2022-07-25T15:11:45;26.80;91.40
8838;DHT22;4455;50.880;4.698;2022-07-25T15:14:12;26.80;91.60
8838;DHT22;4455;50.880;4.698;2022-07-25T15:16:38;26.60;91.50
8838;DHT22;4455;50.880;4.698;2022-07-25T15:19:04;26.50;91.60
8838;DHT22;4455;50.880;4.698;2022-07-25T15:21:33;26.40;91.80
8838;DHT22;4455;50.880;4.698;2022-07-25T15:23:59;26.30;91.50
8838;DHT22;4455;50.880;4.698;2022-07-25T15:26:25;26.40;91.90
8838;DHT22;4455;50.880;4.698;2022-07-25T15:28:51;26.40;91.50
8838;DHT22;4455;50.880;4.698;2022-07-25T15:31:17;26.40;91.80
8838;DHT22;4455;50.880;4.698;2022-07-25T15:33:43;26.60;91.80
8838;DHT22;4455;50.880;4.698;2022-07-25T15:36:08;26.60;91.70
8838;DHT22;4455;50.880;4.698;2022-07-25T15:38:35;26.70;90.80
8838;DHT22;4455;50.880;4.698;2022-07-25T15:41:01;26.70;91.60
8838;DHT22;4455;50.880;4.698;2022-07-25T15:43:27;26.60;92.30
8838;DHT22;4455;50.880;4.698;2022-07-25T15:45:53;26.60;91.60
8838;DHT22;4455;50.880;4.698;2022-07-25T15:48:19;26.50;91.60
8838;DHT22;4455;50.880;4.698;2022-07-25T15:50:47;26.20;91.20
8838;DHT22;4455;50.880;4.698;2022-07-25T15:53:14;26.00;91.40
8838;DHT22;4455;50.880;4.698;2022-07-25T15:55:41;26.00;92.00
8838;DHT22;4455;50.880;4.698;2022-07-25T15:58:07;26.10;91.90
8838;DHT22;4455;50.880;4.698;2022-07-25T16:00:36;26.30;91.60
8838;DHT22;4455;50.880;4.698;2022-07-25T16:03:03;26.30;91.40
8838;DHT22;4455;50.880;4.698;2022-07-25T16:05:29;26.20;91.00
8838;DHT22;4455;50.880;4.698;2022-07-25T16:07:58;26.10;91.60
8838;DHT22;4455;50.880;4.698;2022-07-25T16:10:27;26.20;91.30
8838;DHT22;4455;50.880;4.698;2022-07-25T16:12:53;26.10;90.50
8838;DHT22;4455;50.880;4.698;2022-07-25T16:15:19;26.00;90.70
8838;DHT22;4455;50.880;4.698;2022-07-25T16:17:45;25.90;91.00